Time;durP1;ratioP1;P1;durP2;ratioP2;P2;SDS_P1;SDS_P2;PMS_P1;PMS_P2;Temp;Humidity;BMP_temperature;BMP_pressure;BME280_temperature;BME280_humidity;BME280_pressure;Samples;Min_cycle;Max_cycle;Signal;HPM_P1;HPM_P2
2021/04/04 00:01:29;;;;;;;2.13;1.08;;;13.00;28.70;;;;;;4993306;28;20034;-72
2021/04/04 00:03:55;;;;;;;4.15;0.98;;;12.90;28.80;;;;;;4993324;28;20026;-73
2021/04/04 00:06:21;;;;;;;1.88;1.10;;;12.90;28.80;;;;;;4993409;28;20026;-71
2021/04/04 00:08:47;;;;;;;3.53;0.95;;;12.80;29.40;;;;;;4993422;28;20026;-71
2021/04/04 00:11:13;;;;;;;2.53;1.17;;;12.80;29.20;;;;;;4993310;28;20471;-71
2021/04/04 00:13:39;;;;;;;3.15;0.98;;;12.80;28.70;;;;;;4993160;28;20053;-71
2021/04/04 00:16:05;;;;;;;1.80;0.93;;;12.80;29.30;;;;;;4992612;28;20034;-71
2021/04/04 00:18:31;;;;;;;3.88;0.90;;;12.70;29.90;;;;;;4993381;28;20101;-75
2021/04/04 00:20:57;;;;;;;1.30;0.90;;;12.70;30.40;;;;;;4993435;28;20058;-75
2021/04/04 00:23:22;;;;;;;2.92;1.00;;;12.70;30.60;;;;;;4993188;28;20113;-71
2021/04/04 00:25:48;;;;;;;3.22;1.00;;;12.60;29.40;;;;;;4993489;28;20085;-75
2021/04/04 00:28:14;;;;;;;1.63;1.00;;;12.60;29.80;;;;;;4992775;28;20037;-71
2021/04/04 00:30:40;;;;;;;1.88;1.10;;;12.60;28.80;;;;;;4992917;28;20391;-72
2021/04/04 00:33:06;;;;;;;1.55;1.00;;;12.60;29.40;;;;;;4993208;28;20033;-72
2021/04/04 00:35:32;;;;;;;2.47;1.30;;;12.60;29.30;;;;;;4993058;28;20034;-72
2021/04/04 00:37:58;;;;;;;1.63;1.35;;;12.50;29.90;;;;;;4993005;28;20027;-71
2021/04/04 00:40:32;;;;;;;2.42;1.20;;;12.50;30.00;;;;;;4992709;28;20084;-71
2021/04/04 00:42:58;;;;;;;4.10;1.08;;;12.50;32.60;;;;;;4993117;28;20029;-76
2021/04/04 00:45:26;;;;;;;1.75;1.05;;;12.50;31.00;;;;;;4994146;28;20027;-71
2021/04/04 00:47:52;;;;;;;1.75;1.00;;;12.50;29.30;;;;;;4996389;28;20027;-71
2021/04/04 00:50:21;;;;;;;2.63;1.13;;;12.40;29.60;;;;;;4996139;28;20053;-74
2021/04/04 00:52:47;;;;;;;3.15;1.50;;;12.40;30.70;;;;;;4996197;28;20109;-71
2021/04/04 00:55:15;;;;;;;2.35;1.00;;;12.40;29.60;;;;;;4996139;28;20031;-71
2021/04/04 00:57:42;;;;;;;1.98;1.05;;;12.30;30.40;;;;;;4995486;28;20023;-72
2021/04/04 01:00:09;;;;;;;1.50;1.00;;;12.30;31.40;;;;;;4993586;28;20462;-72
2021/04/04 01:02:37;;;;;;;1.92;0.90;;;12.30;30.50;;;;;;4993469;28;20045;-73
2021/04/04 01:05:07;;;;;;;2.08;1.15;;;12.20;31.90;;;;;;4994534;28;20030;-72
2021/04/04 01:07:35;;;;;;;3.28;1.30;;;12.20;32.10;;;;;;4995390;28;20058;-71
2021/04/04 01:10:04;;;;;;;3.25;1.75;;;12.20;31.70;;;;;;4995445;28;20104;-71
2021/04/04 01:12:40;;;;;;;2.22;1.15;;;12.20;30.00;;;;;;4995776;28;20023;-72
2021/04/04 01:15:28;;;;;;;1.95;1.10;;;12.10;32.80;;;;;;4995940;28;20042;-74
2021/04/04 01:17:56;;;;;;;2.88;1.15;;;12.10;32.40;;;;;;4978451;28;20089;-74
2021/04/04 01:20:22;;;;;;;1.77;1.17;;;12.00;31.40;;;;;;4995280;28;20058;-71
2021/04/04 01:22:57;;;;;;;1.77;1.10;;;12.00;32.00;;;;;;4995971;28;20145;-71
2021/04/04 01:25:34;;;;;;;1.88;0.98;;;11.90;31.80;;;;;;4995947;28;20023;-75
2021/04/04 01:28:03;;;;;;;1.90;0.98;;;11.90;35.00;;;;;;4995731;28;20026;-71
2021/04/04 01:30:34;;;;;;;2.45;1.10;;;11.90;33.50;;;;;;4995062;28;20121;-71
2021/04/04 01:33:03;;;;;;;1.73;1.00;;;11.90;32.90;;;;;;4995796;28;20034;-71
2021/04/04 01:35:34;;;;;;;2.22;1.30;;;11.90;33.50;;;;;;4995448;28;20033;-71
2021/04/04 01:38:09;;;;;;;2.50;1.30;;;11.90;32.50;;;;;;4995886;28;20038;-71
2021/04/04 01:40:36;;;;;;;2.75;1.20;;;11.90;32.90;;;;;;4977892;28;20026;-71
2021/04/04 01:43:05;;;;;;;2.33;1.25;;;11.80;36.70;;;;;;4995061;28;20030;-71
2021/04/04 01:45:31;;;;;;;4.60;1.33;;;11.80;32.90;;;;;;4995496;28;20549;-71
2021/04/04 01:47:59;;;;;;;3.03;1.15;;;11.70;35.60;;;;;;4994039;28;20113;-71
2021/04/04 01:50:26;;;;;;;2.42;1.02;;;11.70;35.70;;;;;;4994795;28;20375;-71
2021/04/04 01:52:53;;;;;;;2.95;1.20;;;11.70;34.10;;;;;;4995355;28;20036;-71
2021/04/04 01:55:19;;;;;;;2.20;1.30;;;11.60;36.70;;;;;;4995127;28;20054;-71
2021/04/04 01:57:46;;;;;;;1.38;0.95;;;11.70;36.70;;;;;;4994668;28;20027;-71
2021/04/04 02:00:16;;;;;;;2.63;1.20;;;11.70;35.10;;;;;;4993834;28;20364;-71
2021/04/04 02:02:46;;;;;;;1.85;1.27;;;11.60;36.30;;;;;;4994984;28;20029;-71
2021/04/04 02:05:12;;;;;;;3.80;1.38;;;11.60;35.70;;;;;;4995097;28;20065;-72
2021/04/04 02:07:43;;;;;;;3.15;1.25;;;11.60;35.90;;;;;;4994877;28;20026;-72
2021/04/04 02:10:14;;;;;;;2.00;1.10;;;11.70;35.20;;;;;;4994829;28;20034;-71
2021/04/04 02:12:43;;;;;;;1.73;1.10;;;11.70;35.80;;;;;;4995057;28;20367;-71
2021/04/04 02:15:19;;;;;;;3.25;1.40;;;11.70;35.50;;;;;;4995039;28;20088;-71
2021/04/04 02:17:47;;;;;;;2.45;1.25;;;11.70;35.20;;;;;;4994776;28;20050;-71
2021/04/04 02:20:16;;;;;;;2.20;1.23;;;11.70;34.00;;;;;;4994783;28;20030;-72
2021/04/04 02:22:43;;;;;;;4.00;1.27;;;11.70;35.10;;;;;;4994858;28;20053;-71
2021/04/04 02:25:11;;;;;;;3.10;1.65;;;11.80;34.60;;;;;;4994886;28;20467;-71
2021/04/04 02:27:39;;;;;;;3.35;1.73;;;11.80;34.80;;;;;;4994566;28;20026;-74
2021/04/04 02:30:06;;;;;;;3.47;1.60;;;11.80;34.50;;;;;;4994367;28;20364;-71
2021/04/04 02:32:36;;;;;;;2.63;1.50;;;11.90;35.00;;;;;;4994483;28;20026;-76
2021/04/04 02:35:04;;;;;;;3.08;1.85;;;11.90;35.00;;;;;;4977134;28;20026;-76
2021/04/04 02:37:30;;;;;;;3.20;1.70;;;11.80;35.40;;;;;;4994409;28;20026;-75
2021/04/04 02:40:02;;;;;;;2.17;1.77;;;11.80;35.70;;;;;;4994113;28;20018;-75
2021/04/04 02:42:29;;;;;;;2.58;1.80;;;11.80;36.40;;;;;;4994080;28;20026;-71
2021/04/04 02:44:58;;;;;;;3.30;1.90;;;11.80;36.90;;;;;;4994130;28;20098;-72
2021/04/04 02:47:32;;;;;;;2.63;1.77;;;11.70;36.80;;;;;;4994219;28;20030;-72
2021/04/04 02:50:00;;;;;;;3.55;2.13;;;11.70;36.90;;;;;;4993845;28;20086;-71
2021/04/04 02:52:28;;;;;;;3.55;1.90;;;11.60;36.80;;;;;;4994025;28;20026;-73
2021/04/04 02:54:56;;;;;;;2.97;1.95;;;11.60;37.00;;;;;;4994102;28;20109;-73
2021/04/04 02:57:29;;;;;;;3.30;1.80;;;11.60;37.70;;;;;;4994240;28;20030;-72
2021/04/04 02:59:58;;;;;;;3.75;2.17;;;11.50;38.00;;;;;;4994069;28;20065;-72
2021/04/04 03:02:25;;;;;;;3.88;2.15;;;11.50;37.80;;;;;;4994083;28;20022;-71
2021/04/04 03:04:52;;;;;;;3.90;2.00;;;11.50;38.00;;;;;;4993936;28;20483;-72
2021/04/04 03:07:22;;;;;;;3.35;2.00;;;11.40;38.30;;;;;;4993539;28;20084;-71
2021/04/04 03:09:51;;;;;;;2.92;2.10;;;11.40;38.90;;;;;;4993468;28;20027;-71
2021/04/04 03:12:18;;;;;;;4.38;2.15;;;11.40;39.00;;;;;;4993752;28;20030;-72
2021/04/04 03:14:45;;;;;;;2.90;1.80;;;11.30;38.90;;;;;;4993971;28;20022;-74
2021/04/04 03:17:13;;;;;;;2.60;2.17;;;11.30;39.30;;;;;;4994032;28;20085;-75
2021/04/04 03:19:41;;;;;;;3.55;2.08;;;11.30;38.60;;;;;;4993898;28;20057;-72
2021/04/04 03:22:08;;;;;;;3.33;2.30;;;11.30;38.40;;;;;;4993566;28;20070;-74
2021/04/04 03:24:35;;;;;;;3.50;2.08;;;11.30;38.30;;;;;;4994117;28;20372;-73
2021/04/04 03:27:02;;;;;;;4.03;2.30;;;11.30;38.80;;;;;;4993815;28;20109;-71
2021/04/04 03:29:30;;;;;;;2.70;1.90;;;11.20;38.60;;;;;;4993494;28;20101;-71
2021/04/04 03:31:58;;;;;;;4.30;2.38;;;11.20;38.70;;;;;;4976101;28;20042;-71
2021/04/04 03:34:25;;;;;;;3.55;2.35;;;11.10;39.30;;;;;;4993476;28;20030;-72
2021/04/04 03:36:53;;;;;;;3.42;2.20;;;11.10;39.70;;;;;;4993510;28;20026;-74
2021/04/04 03:39:20;;;;;;;3.58;2.10;;;11.00;39.70;;;;;;4993734;28;20033;-72
2021/04/04 03:41:48;;;;;;;2.85;1.80;;;11.00;40.40;;;;;;4993727;28;20026;-71
2021/04/04 03:44:18;;;;;;;3.90;2.20;;;11.00;39.80;;;;;;4993565;28;20026;-72
2021/04/04 03:46:46;;;;;;;4.05;2.30;;;10.90;39.70;;;;;;4993779;28;20395;-75
2021/04/04 03:49:12;;;;;;;3.75;2.28;;;10.90;40.10;;;;;;4993185;28;20050;-76
2021/04/04 03:51:39;;;;;;;5.38;2.33;;;10.80;40.30;;;;;;4993340;28;20085;-71
2021/04/04 03:54:06;;;;;;;4.25;2.33;;;10.80;40.00;;;;;;4993363;28;20037;-76
2021/04/04 03:56:34;;;;;;;3.95;2.20;;;10.80;40.90;;;;;;4993291;28;20026;-71
2021/04/04 03:59:10;;;;;;;4.13;2.00;;;10.70;40.20;;;;;;4993424;28;20070;-71
2021/04/04 04:01:39;;;;;;;3.92;2.08;;;10.70;41.30;;;;;;4993582;28;20113;-72
2021/04/04 04:04:09;;;;;;;3.40;2.13;;;10.60;42.00;;;;;;4993245;28;20479;-75
2021/04/04 04:06:37;;;;;;;3.10;2.28;;;10.60;41.10;;;;;;4993173;28;20034;-73
2021/04/04 04:09:14;;;;;;;3.53;2.20;;;10.60;43.10;;;;;;4993087;28;20026;-74
2021/04/04 04:11:42;;;;;;;5.80;2.43;;;10.50;43.80;;;;;;4993159;28;20031;-74
2021/04/04 04:14:12;;;;;;;3.65;2.28;;;10.50;42.60;;;;;;4993181;28;20018;-74
2021/04/04 04:16:38;;;;;;;6.10;2.20;;;10.40;42.20;;;;;;4993129;28;20036;-75
2021/04/04 04:19:06;;;;;;;4.27;2.30;;;10.40;43.30;;;;;;4993775;28;20023;-71
2021/04/04 04:21:33;;;;;;;4.47;2.10;;;10.40;44.20;;;;;;4996983;28;20471;-70
2021/04/04 04:24:01;;;;;;;3.43;2.03;;;10.30;43.10;;;;;;4996564;28;20022;-74
2021/04/04 04:26:28;;;;;;;2.87;2.10;;;10.30;43.50;;;;;;4996747;28;20038;-71
2021/04/04 04:28:54;;;;;;;3.27;2.33;;;10.30;44.50;;;;;;4996720;28;20506;-70
2021/04/04 04:31:26;;;;;;;3.07;1.83;;;10.20;44.40;;;;;;4996732;28;20034;-74
2021/04/04 04:33:56;;;;;;;3.63;2.27;;;10.20;44.10;;;;;;4996763;28;20030;-71
2021/04/04 04:36:23;;;;;;;2.50;1.90;;;10.20;44.40;;;;;;4996650;28;20109;-71
2021/04/04 04:38:52;;;;;;;4.87;2.30;;;10.20;45.40;;;;;;4996702;28;20414;-70
2021/04/04 04:41:19;;;;;;;2.67;1.87;;;10.10;45.00;;;;;;4996725;28;20026;-71
2021/04/04 04:43:51;;;;;;;3.27;1.90;;;10.10;45.10;;;;;;4996476;28;20030;-71
2021/04/04 04:46:17;;;;;;;4.57;1.95;;;10.10;44.80;;;;;;4996239;28;20038;-70
2021/04/04 04:48:44;;;;;;;5.27;2.10;;;10.10;45.20;;;;;;4996436;28;20109;-71
2021/04/04 04:51:11;;;;;;;3.40;1.77;;;10.10;45.60;;;;;;4996237;28;20057;-74
2021/04/04 04:53:38;;;;;;;3.77;2.07;;;10.10;44.40;;;;;;4996237;28;20023;-74
2021/04/04 04:56:04;;;;;;;2.93;1.90;;;10.10;43.80;;;;;;4978849;28;20435;-71
2021/04/04 04:58:35;;;;;;;5.47;2.20;;;10.00;44.70;;;;;;4996239;28;20106;-74
2021/04/04 05:01:07;;;;;;;4.83;2.30;;;10.00;46.80;;;;;;4996190;28;20126;-72
2021/04/04 05:03:32;;;;;;;4.80;1.97;;;10.00;46.40;;;;;;4996281;28;20056;-72
2021/04/04 05:06:18;;;;;;;2.23;1.80;;;9.90;46.60;;;;;;4996034;28;20738;-72
2021/04/04 05:08:45;;;;;;;2.33;1.80;;;9.80;46.50;;;;;;4996407;28;20106;-75
2021/04/04 05:11:13;;;;;;;2.57;1.90;;;9.90;45.70;;;;;;4996023;28;20038;-71
2021/04/04 05:13:41;;;;;;;4.10;2.40;;;9.80;45.50;;;;;;4995929;28;20472;-72
2021/04/04 05:16:10;;;;;;;5.43;2.27;;;9.80;45.80;;;;;;4995988;28;20030;-72
2021/04/04 05:18:37;;;;;;;4.77;2.53;;;9.80;45.80;;;;;;4996360;28;20349;-71
2021/04/04 05:21:04;;;;;;;5.93;4.20;;;9.70;46.00;;;;;;4995986;28;20050;-75
2021/04/04 05:23:30;;;;;;;4.73;3.70;;;9.80;45.30;;;;;;4995947;28;20058;-71
2021/04/04 05:25:56;;;;;;;5.73;3.70;;;9.70;45.40;;;;;;4995645;28;20050;-71
2021/04/04 05:28:23;;;;;;;4.53;3.50;;;9.70;46.10;;;;;;4995732;28;20038;-71
2021/04/04 05:30:49;;;;;;;5.17;3.17;;;9.70;46.00;;;;;;4994915;28;20126;-72
2021/04/04 05:33:15;;;;;;;4.80;2.73;;;9.70;46.80;;;;;;4995651;28;20134;-73
2021/04/04 05:35:42;;;;;;;5.23;3.03;;;9.70;48.70;;;;;;4995480;28;20026;-72
2021/04/04 05:38:09;;;;;;;3.87;2.23;;;9.70;46.30;;;;;;4995570;28;20101;-76
2021/04/04 05:40:36;;;;;;;4.67;2.43;;;9.80;46.40;;;;;;4995539;28;20057;-73
2021/04/04 05:43:14;;;;;;;3.80;2.10;;;9.80;46.90;;;;;;4995484;28;20026;-71
2021/04/04 05:45:53;;;;;;;5.33;2.70;;;9.80;46.80;;;;;;4995401;28;20435;-73
2021/04/04 05:48:37;;;;;;;3.83;2.60;;;9.80;47.40;;;;;;4995388;28;20394;-77
2021/04/04 05:51:22;;;;;;;5.40;2.70;;;9.90;45.60;;;;;;4994927;28;20042;-72
2021/04/04 05:53:53;;;;;;;4.43;2.37;;;9.90;43.40;;;;;;4995107;28;20434;-78
2021/04/04 05:56:48;;;;;;;3.80;2.23;;;10.00;43.50;;;;;;4994975;28;20086;-72
2021/04/04 05:59:23;;;;;;;3.50;2.47;;;10.00;43.70;;;;;;4991520;28;20039;-74
2021/04/04 06:02:00;;;;;;;4.23;2.47;;;10.10;44.00;;;;;;4994821;28;20030;-73
2021/04/04 06:04:38;;;;;;;6.73;2.87;;;10.10;44.20;;;;;;4977970;28;20054;-73
2021/04/04 06:07:26;;;;;;;4.90;2.50;;;10.20;44.70;;;;;;4995722;28;20022;-74
2021/04/04 06:10:06;;;;;;;8.17;2.47;;;10.20;44.90;;;;;;4976756;28;20125;-72
2021/04/04 06:12:56;;;;;;;4.60;2.57;;;10.30;45.00;;;;;;4994621;28;20022;-76
2021/04/04 06:15:44;;;;;;;4.93;3.17;;;10.40;44.50;;;;;;4992365;28;20046;-72
2021/04/04 06:18:35;;;;;;;5.67;2.80;;;10.40;44.40;;;;;;4993113;28;20032;-75
2021/04/04 06:21:22;;;;;;;4.33;2.67;;;10.40;44.10;;;;;;4991531;28;20403;-74
2021/04/04 06:24:00;;;;;;;6.27;2.83;;;10.50;44.40;;;;;;4991021;28;20439;-71
2021/04/04 06:27:00;;;;;;;3.37;2.50;;;10.60;44.70;;;;;;4990319;28;20038;-71
2021/04/04 06:29:41;;;;;;;5.23;2.47;;;10.70;44.10;;;;;;4968033;28;20420;-71
2021/04/04 06:32:22;;;;;;;5.87;2.60;;;10.70;43.90;;;;;;4985941;28;20070;-71
2021/04/04 06:35:02;;;;;;;5.80;2.73;;;10.80;43.70;;;;;;4991197;28;20463;-72
2021/04/04 06:37:55;;;;;;;6.27;2.77;;;10.90;42.90;;;;;;4972840;28;20081;-71
2021/04/04 06:41:00;;;;;;;7.07;3.27;;;10.90;43.80;;;;;;4986722;28;20093;-71
2021/04/04 06:43:48;;;;;;;4.50;2.77;;;10.90;44.00;;;;;;4968212;28;20121;-72
2021/04/04 06:46:22;;;;;;;4.30;2.67;;;11.00;42.70;;;;;;4989302;28;20052;-71
2021/04/04 06:48:50;;;;;;;4.17;2.73;;;11.10;42.30;;;;;;4990721;28;20030;-72
2021/04/04 06:51:24;;;;;;;6.05;2.47;;;11.10;43.70;;;;;;4988876;28;20121;-73
2021/04/04 06:54:08;;;;;;;3.87;2.47;;;11.10;42.90;;;;;;4991017;28;20040;-72
2021/04/04 06:56:58;;;;;;;5.70;2.93;;;11.20;43.00;;;;;;4993442;28;20038;-72
2021/04/04 06:59:42;;;;;;;5.43;2.90;;;11.30;43.30;;;;;;4991753;28;20038;-71
2021/04/04 07:02:09;;;;;;;5.22;2.70;;;11.30;42.90;;;;;;4993522;28;20022;-72
2021/04/04 07:04:40;;;;;;;4.65;2.97;;;11.40;42.90;;;;;;4990751;28;20506;-72
2021/04/04 07:07:20;;;;;;;5.63;3.00;;;11.40;42.80;;;;;;4991568;28;20034;-72
2021/04/04 07:10:18;;;;;;;4.43;2.63;;;11.50;42.60;;;;;;4991962;28;20126;-72
2021/04/04 07:13:11;;;;;;;5.45;2.97;;;11.50;42.50;;;;;;4993209;28;20061;-71
2021/04/04 07:16:14;;;;;;;4.57;3.08;;;11.50;42.50;;;;;;4990973;28;20022;-73
2021/04/04 07:18:58;;;;;;;4.88;3.13;;;11.60;42.30;;;;;;4972898;28;20407;-72
2021/04/04 07:21:42;;;;;;;5.23;2.50;;;11.60;42.20;;;;;;4981779;28;20042;-72
2021/04/04 07:24:13;;;;;;;6.88;3.25;;;11.60;42.20;;;;;;4993567;28;20061;-72
2021/04/04 07:27:08;;;;;;;5.00;2.67;;;11.70;41.70;;;;;;4975351;28;20419;-72
2021/04/04 07:29:55;;;;;;;4.47;2.73;;;11.70;42.50;;;;;;4992299;28;20429;-72
2021/04/04 07:32:26;;;;;;;4.30;2.47;;;11.80;42.40;;;;;;4993536;28;20026;-73
2021/04/04 07:34:58;;;;;;;4.72;2.95;;;11.80;42.70;;;;;;4993476;28;20138;-71
2021/04/04 07:37:26;;;;;;;4.47;2.35;;;11.90;42.20;;;;;;4993637;28;20027;-72
2021/04/04 07:40:01;;;;;;;4.30;2.30;;;11.90;41.80;;;;;;4993311;28;20022;-72
2021/04/04 07:43:11;;;;;;;5.40;2.45;;;12.00;40.60;;;;;;4990703;28;20022;-72
2021/04/04 07:45:53;;;;;;;3.30;2.00;;;12.00;40.90;;;;;;4992065;28;20461;-72
2021/04/04 07:48:22;;;;;;;5.00;2.70;;;12.10;40.90;;;;;;4991407;28;20550;-71
2021/04/04 07:51:05;;;;;;;3.60;2.17;;;12.10;41.00;;;;;;4989903;28;20043;-71
2021/04/04 07:53:43;;;;;;;3.38;2.05;;;12.20;41.60;;;;;;4990054;28;20542;-71
2021/04/04 07:56:18;;;;;;;4.97;2.53;;;12.30;41.00;;;;;;4996493;28;20096;-72
2021/04/04 07:58:58;;;;;;;3.88;2.15;;;12.40;39.50;;;;;;4996305;28;20482;-72
2021/04/04 08:01:32;;;;;;;6.80;2.22;;;12.40;39.50;;;;;;4994486;28;20056;-71
2021/04/04 08:04:08;;;;;;;9.55;2.38;;;12.50;41.30;;;;;;4996740;28;20022;-71
2021/04/04 08:06:44;;;;;;;3.95;2.05;;;12.60;39.70;;;;;;4997162;28;20026;-73
2021/04/04 08:09:12;;;;;;;3.80;2.00;;;12.70;40.00;;;;;;4997190;28;20029;-72
2021/04/04 08:11:49;;;;;;;2.45;2.00;;;12.70;39.40;;;;;;4997427;28;20039;-72
2021/04/04 08:14:20;;;;;;;3.10;2.20;;;12.80;39.90;;;;;;4997210;28;20034;-71
2021/04/04 08:16:55;;;;;;;3.70;2.10;;;12.80;40.50;;;;;;4996723;28;20101;-72
2021/04/04 08:19:21;;;;;;;4.05;2.20;;;12.90;38.60;;;;;;4996747;28;20046;-71
2021/04/04 08:21:54;;;;;;;11.13;2.13;;;;;;;;;;4997214;28;20053;-71
2021/04/04 08:24:28;;;;;;;3.00;1.92;;;13.00;38.50;;;;;;4996865;28;20114;-71
2021/04/04 08:27:20;;;;;;;3.85;1.83;;;13.10;39.10;;;;;;4997457;28;20386;-72
2021/04/04 08:30:11;;;;;;;5.57;1.67;;;13.20;38.20;;;;;;4985385;28;20368;-72
2021/04/04 08:33:05;;;;;;;3.40;1.70;;;13.30;38.00;;;;;;4995602;28;20034;-73
2021/04/04 08:35:39;;;;;;;3.65;1.80;;;13.40;36.70;;;;;;4993860;28;20475;-72
2021/04/04 08:38:22;;;;;;;3.70;2.08;;;13.50;36.30;;;;;;4994187;28;20022;-72
2021/04/04 08:40:49;;;;;;;2.92;1.42;;;13.60;36.50;;;;;;4996396;28;20027;-72
2021/04/04 08:43:16;;;;;;;3.80;1.35;;;13.60;36.30;;;;;;4996606;28;20038;-72
2021/04/04 08:46:11;;;;;;;4.03;2.03;;;13.70;36.80;;;;;;4996747;28;20022;-74
2021/04/04 08:48:39;;;;;;;5.30;1.67;;;13.80;35.80;;;;;;4996381;28;20117;-73
2021/04/04 08:51:10;;;;;;;4.25;1.70;;;13.80;34.90;;;;;;4996175;28;20053;-72
2021/04/04 08:53:43;;;;;;;3.75;1.70;;;13.90;36.20;;;;;;4996304;28;20019;-72
2021/04/04 08:56:09;;;;;;;4.28;1.58;;;14.00;35.50;;;;;;4979204;28;20415;-72
2021/04/04 08:58:45;;;;;;;2.50;1.42;;;14.10;34.20;;;;;;4994019;28;20026;-72
2021/04/04 09:01:31;;;;;;;2.85;1.40;;;14.20;33.90;;;;;;4993349;28;20134;-72
2021/04/04 09:04:00;;;;;;;5.78;1.70;;;;;;;;;;4989300;28;20117;-71
2021/04/04 09:06:44;;;;;;;9.55;1.63;;;14.30;34.00;;;;;;4994420;28;20022;-72
2021/04/04 09:09:21;;;;;;;3.00;1.60;;;14.40;34.40;;;;;;4976313;28;20077;-71
2021/04/04 09:11:49;;;;;;;3.08;1.50;;;14.40;33.90;;;;;;4976605;28;20133;-72
2021/04/04 09:14:24;;;;;;;2.75;1.55;;;14.50;33.10;;;;;;4976378;28;20064;-72
2021/04/04 09:16:59;;;;;;;7.72;1.75;;;14.50;32.90;;;;;;4990639;28;20037;-71
2021/04/04 09:19:31;;;;;;;2.38;1.55;;;14.60;32.40;;;;;;4995798;28;20031;-72
2021/04/04 09:21:59;;;;;;;3.33;1.77;;;14.70;32.20;;;;;;4995673;28;20495;-71
2021/04/04 09:24:27;;;;;;;3.80;1.70;;;14.80;32.30;;;;;;4995661;28;20368;-72
2021/04/04 09:26:55;;;;;;;6.50;1.60;;;14.80;32.80;;;;;;4995308;28;20101;-72
2021/04/04 09:29:23;;;;;;;3.15;1.42;;;14.90;32.10;;;;;;4993857;28;20034;-72
2021/04/04 09:31:51;;;;;;;3.00;1.50;;;14.90;32.60;;;;;;4995188;28;20502;-72
2021/04/04 09:34:19;;;;;;;3.53;1.50;;;15.00;31.30;;;;;;4995946;28;20033;-72
2021/04/04 09:36:47;;;;;;;5.43;1.42;;;15.00;30.10;;;;;;4994325;28;20489;-72
2021/04/04 09:39:16;;;;;;;3.78;1.60;;;15.10;30.30;;;;;;4994701;28;20080;-71
2021/04/04 09:41:44;;;;;;;1.90;1.30;;;15.10;29.80;;;;;;4994510;28;20033;-73
2021/04/04 09:44:10;;;;;;;6.78;1.63;;;15.20;29.40;;;;;;4994946;28;20026;-72
2021/04/04 09:46:59;;;;;;;3.53;1.50;;;15.20;29.20;;;;;;4993944;28;20022;-72
2021/04/04 09:49:43;;;;;;;3.53;1.60;;;15.20;29.70;;;;;;4993821;28;20042;-72
2021/04/04 09:52:20;;;;;;;2.97;1.35;;;15.30;30.20;;;;;;4994709;28;20034;-72
2021/04/04 09:55:14;;;;;;;2.50;1.42;;;15.40;30.00;;;;;;4995214;28;20058;-72
2021/04/04 09:57:39;;;;;;;3.25;1.60;;;15.50;30.10;;;;;;4995412;28;20026;-72
2021/04/04 10:00:25;;;;;;;5.72;1.30;;;15.60;30.40;;;;;;4995073;28;20141;-72
2021/04/04 10:02:51;;;;;;;4.80;1.70;;;15.60;29.40;;;;;;4995217;28;20537;-72
2021/04/04 10:05:32;;;;;;;5.28;1.40;;;15.60;29.60;;;;;;4995006;28;20030;-72
2021/04/04 10:08:16;;;;;;;4.20;1.50;;;15.70;29.70;;;;;;4994877;28;20494;-72
2021/04/04 10:11:13;;;;;;;3.97;1.42;;;15.70;30.80;;;;;;4993193;28;20054;-72
2021/04/04 10:13:39;;;;;;;2.40;1.40;;;15.80;29.40;;;;;;4990176;28;20109;-72
2021/04/04 10:16:20;;;;;;;2.00;1.35;;;15.90;29.90;;;;;;4994118;28;20034;-73
2021/04/04 10:19:09;;;;;;;1.92;1.10;;;15.90;29.00;;;;;;4982730;28;20029;-72
2021/04/04 10:21:41;;;;;;;2.30;1.42;;;16.00;29.00;;;;;;4994256;28;20407;-72
2021/04/04 10:24:30;;;;;;;2.72;1.20;;;16.00;29.40;;;;;;4992951;28;20038;-74
2021/04/04 10:27:25;;;;;;;3.15;1.50;;;16.10;28.90;;;;;;4993871;28;20042;-72
2021/04/04 10:30:13;;;;;;;2.83;1.30;;;16.20;29.30;;;;;;4975046;28;20077;-72
2021/04/04 10:32:40;;;;;;;3.85;1.30;;;16.10;29.30;;;;;;4981078;28;20383;-73
2021/04/04 10:35:08;;;;;;;4.18;1.40;;;16.10;30.00;;;;;;4994271;28;20030;-72
2021/04/04 10:37:35;;;;;;;3.35;1.40;;;16.10;29.40;;;;;;4994278;28;20034;-72
2021/04/04 10:40:11;;;;;;;2.92;1.50;;;16.10;29.90;;;;;;4994581;28;20045;-72
2021/04/04 10:42:40;;;;;;;2.85;1.40;;;16.10;30.30;;;;;;4992201;28;20071;-73
2021/04/04 10:45:17;;;;;;;2.60;1.45;;;16.00;29.20;;;;;;4988111;28;20026;-73
2021/04/04 10:47:44;;;;;;;5.25;2.25;;;16.00;30.10;;;;;;4989533;28;20029;-73
2021/04/04 10:50:16;;;;;;;3.58;1.38;;;16.00;29.30;;;;;;4993226;28;20052;-72
2021/04/04 10:52:44;;;;;;;3.67;1.43;;;15.90;29.90;;;;;;4993628;28;20153;-72
2021/04/04 10:55:11;;;;;;;4.03;1.67;;;15.80;29.30;;;;;;4993925;28;20064;-72
2021/04/04 10:57:38;;;;;;;3.40;1.30;;;15.80;29.90;;;;;;4993278;28;20109;-72
2021/04/04 11:00:06;;;;;;;2.65;1.40;;;15.80;29.50;;;;;;4991228;28;20069;-73
2021/04/04 11:02:35;;;;;;;2.42;1.15;;;15.80;29.50;;;;;;4991162;28;20650;-72
2021/04/04 11:05:01;;;;;;;2.88;1.50;;;15.80;29.70;;;;;;4994200;28;20106;-73
2021/04/04 11:07:29;;;;;;;2.67;1.25;;;15.80;29.10;;;;;;4994158;28;20034;-72
2021/04/04 11:09:55;;;;;;;4.75;1.33;;;15.80;29.80;;;;;;4993821;28;20117;-73
2021/04/04 11:12:22;;;;;;;2.67;1.63;;;16.00;30.20;;;;;;4976299;28;20034;-72
2021/04/04 11:14:50;;;;;;;5.80;1.52;;;16.00;29.00;;;;;;4994070;28;20026;-73
2021/04/04 11:17:21;;;;;;;3.75;1.70;;;16.00;29.50;;;;;;4993866;28;20530;-72
2021/04/04 11:19:50;;;;;;;2.30;1.30;;;16.10;29.00;;;;;;4993828;28;20037;-72
2021/04/04 11:22:19;;;;;;;5.68;1.45;;;16.10;28.30;;;;;;4993815;28;20109;-72
2021/04/04 11:24:55;;;;;;;4.38;1.30;;;16.00;28.00;;;;;;4990486;28;20359;-72
2021/04/04 11:27:36;;;;;;;3.20;1.60;;;16.00;29.10;;;;;;4991140;28;20030;-72
2021/04/04 11:30:03;;;;;;;2.90;1.30;;;15.90;28.00;;;;;;4991740;28;20066;-72
2021/04/04 11:32:29;;;;;;;2.95;1.40;;;15.90;29.20;;;;;;4991960;28;20018;-72
2021/04/04 11:35:03;;;;;;;4.65;1.40;;;16.00;29.30;;;;;;4990137;28;20024;-72
2021/04/04 11:37:28;;;;;;;2.58;1.27;;;16.20;29.10;;;;;;4991040;28;20026;-72
2021/04/04 11:40:29;;;;;;;3.65;1.42;;;16.20;28.90;;;;;;4989015;28;20119;-72
2021/04/04 11:43:27;;;;;;;2.50;1.25;;;16.20;28.10;;;;;;4890141;29;20028;-72
2021/04/04 11:45:53;;;;;;;2.10;1.17;;;16.30;30.10;;;;;;4988502;28;20030;-72
2021/04/04 11:48:32;;;;;;;4.88;1.85;;;16.40;29.40;;;;;;4990643;28;20021;-72
2021/04/04 11:51:10;;;;;;;3.50;1.40;;;16.50;29.60;;;;;;4992146;28;20046;-72
2021/04/04 11:53:46;;;;;;;3.55;1.33;;;16.70;27.60;;;;;;4993396;28;20173;-72
2021/04/04 11:56:40;;;;;;;2.88;1.45;;;16.70;27.90;;;;;;4975393;28;20084;-71
2021/04/04 11:59:06;;;;;;;1.65;1.05;;;16.80;27.10;;;;;;4990427;28;20519;-72
2021/04/04 12:01:32;;;;;;;4.18;1.52;;;16.80;28.10;;;;;;4992565;28;20109;-72
2021/04/04 12:04:17;;;;;;;3.25;1.33;;;16.90;26.60;;;;;;4989476;28;20076;-72
2021/04/04 12:06:43;;;;;;;2.95;1.38;;;;;;;;;;4991832;28;20125;-72
2021/04/04 12:09:10;;;;;;;4.35;1.63;;;16.80;27.70;;;;;;4992021;28;20101;-74
2021/04/04 12:11:36;;;;;;;1.83;1.10;;;16.90;27.70;;;;;;4990058;28;20528;-72
2021/04/04 12:14:02;;;;;;;1.77;1.10;;;17.00;27.80;;;;;;4987692;28;20113;-72
2021/04/04 12:16:45;;;;;;;3.65;1.25;;;16.90;26.90;;;;;;4992196;28;20040;-72
2021/04/04 12:19:11;;;;;;;3.28;1.38;;;16.70;26.70;;;;;;4991380;28;20030;-72
2021/04/04 12:21:48;;;;;;;3.38;1.17;;;16.60;26.50;;;;;;4990729;28;20022;-72
2021/04/04 12:24:14;;;;;;;2.15;1.20;;;16.50;26.20;;;;;;4988858;28;20503;-72
2021/04/04 12:26:40;;;;;;;3.03;1.20;;;16.30;27.20;;;;;;4992339;28;20109;-72
2021/04/04 12:29:05;;;;;;;3.60;1.17;;;16.30;28.50;;;;;;4989963;28;20026;-72
2021/04/04 12:31:38;;;;;;;2.83;1.30;;;16.30;27.00;;;;;;4992141;28;20046;-72
2021/04/04 12:34:04;;;;;;;2.78;1.23;;;16.30;27.50;;;;;;4992490;28;20022;-72
2021/04/04 12:36:30;;;;;;;1.83;1.00;;;16.50;27.90;;;;;;4991711;28;20502;-72
2021/04/04 12:38:57;;;;;;;3.33;1.40;;;16.60;28.10;;;;;;4992823;28;20023;-72
2021/04/04 12:41:23;;;;;;;2.88;1.27;;;16.90;28.30;;;;;;4991362;28;20031;-72
2021/04/04 12:43:49;;;;;;;2.83;1.15;;;17.00;28.90;;;;;;4993858;28;20029;-72
2021/04/04 12:46:14;;;;;;;3.15;1.20;;;17.20;28.90;;;;;;4993168;28;20435;-72
2021/04/04 12:48:40;;;;;;;1.90;1.20;;;17.30;28.00;;;;;;4991114;28;20464;-71
2021/04/04 12:51:06;;;;;;;2.22;1.20;;;17.40;27.90;;;;;;4997219;28;20065;-71
2021/04/04 12:53:36;;;;;;;3.85;1.42;;;17.40;26.30;;;;;;4995940;28;20026;-72
2021/04/04 12:56:02;;;;;;;10.82;2.70;;;17.30;26.60;;;;;;4995992;28;20073;-72
2021/04/04 12:58:29;;;;;;;15.10;2.70;;;17.30;28.60;;;;;;4996201;28;20037;-72
2021/04/04 13:00:55;;;;;;;4.55;1.20;;;17.30;30.90;;;;;;4996307;28;20387;-71
2021/04/04 13:03:21;;;;;;;4.38;1.40;;;17.40;27.60;;;;;;4995896;28;20030;-72
2021/04/04 13:05:52;;;;;;;10.80;2.15;;;17.30;29.00;;;;;;4996296;28;20038;-71
2021/04/04 13:08:18;;;;;;;2.08;1.10;;;;;;;;;;4994750;28;20033;-72
2021/04/04 13:10:57;;;;;;;2.05;1.10;;;17.50;31.80;;;;;;4995183;28;20266;-71
2021/04/04 13:13:29;;;;;;;6.78;1.42;;;17.60;34.20;;;;;;4976540;28;20055;-72
2021/04/04 13:16:03;;;;;;;2.85;1.10;;;17.70;31.40;;;;;;4989739;28;20022;-73